createdAt,value
2019-01-11T00:01:24.633Z,-1.54
2019-01-11T00:03:56.398Z,-1.59
2019-01-11T00:06:28.621Z,-1.58
2019-01-11T00:09:00.560Z,-1.63
2019-01-11T00:11:32.336Z,-1.64
2019-01-11T00:14:04.193Z,-1.66
2019-01-11T00:16:35.954Z,-1.65
2019-01-11T00:19:07.952Z,-1.65
2019-01-11T00:21:40.716Z,-1.59
2019-01-11T00:24:12.785Z,-1.56
2019-01-11T00:26:44.727Z,-1.48
2019-01-11T00:29:16.635Z,-1.54
2019-01-11T00:31:48.454Z,-1.55
2019-01-11T00:34:20.616Z,-1.56
2019-01-11T00:36:52.757Z,-1.52
2019-01-11T00:39:24.557Z,-1.55
2019-01-11T00:41:56.303Z,-1.54
2019-01-11T00:44:28.133Z,-1.55
2019-01-11T00:46:59.925Z,-1.54
2019-01-11T00:49:31.694Z,-1.57
2019-01-11T00:52:03.832Z,-1.50
2019-01-11T00:54:35.721Z,-1.53
2019-01-11T00:57:07.571Z,-1.44
2019-01-11T00:59:39.341Z,-1.44
2019-01-11T01:02:11.193Z,-1.44
2019-01-11T01:04:43.326Z,-1.43
2019-01-11T01:07:15.153Z,-1.43
2019-01-11T01:09:47.108Z,-1.36
2019-01-11T01:12:19.024Z,-1.30
2019-01-11T01:14:50.908Z,-1.33
2019-01-11T01:17:23.021Z,-1.37
2019-01-11T01:19:55.114Z,-1.57
2019-01-11T01:22:27.432Z,-1.72
2019-01-11T01:24:59.351Z,-1.77
2019-01-11T01:27:31.840Z,-1.73
2019-01-11T01:30:04.579Z,-1.64
2019-01-11T01:32:36.658Z,-1.70
2019-01-11T01:35:08.474Z,-1.72
2019-01-11T01:37:40.584Z,-1.69
2019-01-11T01:40:13.396Z,-1.68
2019-01-11T01:42:45.469Z,-1.69
2019-01-11T01:45:18.176Z,-1.65
2019-01-11T01:47:50.278Z,-1.50
2019-01-11T01:50:22.446Z,-1.50
2019-01-11T01:52:54.618Z,-1.57
2019-01-11T01:55:26.759Z,-1.57
2019-01-11T01:57:58.528Z,-1.61
2019-01-11T02:00:30.339Z,-1.51
2019-01-11T02:03:02.087Z,-1.55
2019-01-11T02:05:34.110Z,-1.56
2019-01-11T02:08:05.868Z,-1.59
2019-01-11T02:10:38.019Z,-1.53
2019-01-11T02:13:11.691Z,-1.50
2019-01-11T02:15:43.804Z,-1.49
2019-01-11T02:18:15.969Z,-1.44
2019-01-11T02:20:48.367Z,-1.42
2019-01-11T02:23:20.726Z,-1.49
2019-01-11T02:25:52.581Z,-1.43
2019-01-11T02:28:24.614Z,-1.55
2019-01-11T02:30:56.401Z,-1.43
2019-01-11T02:33:28.270Z,-1.42
2019-01-11T02:36:00.077Z,-1.41
2019-01-11T02:38:32.381Z,-1.41
2019-01-11T02:41:04.777Z,-1.42
2019-01-11T02:43:38.122Z,-1.38
2019-01-11T02:46:10.093Z,-1.42
2019-01-11T02:48:41.949Z,-1.41
2019-01-11T02:51:13.733Z,-1.44
2019-01-11T02:53:45.483Z,-1.40
2019-01-11T02:56:17.257Z,-1.44
2019-01-11T02:58:49.023Z,-1.43
2019-01-11T03:01:20.787Z,-1.46
2019-01-11T03:03:54.469Z,-1.47
2019-01-11T03:06:26.230Z,-1.51
2019-01-11T03:08:58.103Z,-1.44
2019-01-11T03:11:29.944Z,-1.39
2019-01-11T03:14:01.686Z,-1.44
2019-01-11T03:16:33.599Z,-1.42
2019-01-11T03:19:05.422Z,-1.36
2019-01-11T03:21:37.218Z,-1.33
2019-01-11T03:24:08.967Z,-1.42
2019-01-11T03:26:41.105Z,-1.42
2019-01-11T03:29:12.864Z,-1.37
2019-01-11T03:31:44.633Z,-1.42
2019-01-11T03:34:16.651Z,-1.37
2019-01-11T03:36:48.835Z,-1.47
2019-01-11T03:39:20.680Z,-1.47
2019-01-11T03:41:55.277Z,-1.43
2019-01-11T03:44:27.031Z,-1.41
2019-01-11T03:46:58.823Z,-1.39
2019-01-11T03:49:30.894Z,-1.45
2019-01-11T03:52:02.684Z,-1.39
2019-01-11T03:54:34.455Z,-1.45
2019-01-11T03:57:06.499Z,-1.55
2019-01-11T03:59:38.241Z,-1.46
2019-01-11T04:02:10.393Z,-1.55
2019-01-11T04:04:42.422Z,-1.47
2019-01-11T04:07:14.208Z,-1.50
2019-01-11T04:09:45.961Z,-1.46
2019-01-11T04:12:17.750Z,-1.46
2019-01-11T04:14:49.575Z,-1.34
2019-01-11T04:17:21.440Z,-1.34
2019-01-11T04:19:53.276Z,-1.38
2019-01-11T04:22:27.615Z,-1.39
2019-01-11T04:25:06.856Z,-1.46
2019-01-11T04:27:38.808Z,-1.52
2019-01-11T04:30:15.821Z,-1.52
2019-01-11T04:32:47.639Z,-1.49
2019-01-11T04:35:19.715Z,-1.46
2019-01-11T04:37:51.490Z,-1.47
2019-01-11T04:40:23.516Z,-1.43
2019-01-11T04:42:55.313Z,-1.48
2019-01-11T04:45:27.113Z,-1.47
2019-01-11T04:47:59.066Z,-1.42
2019-01-11T04:50:32.559Z,-1.45
2019-01-11T04:53:04.390Z,-1.52
2019-01-11T04:55:36.212Z,-1.46
2019-01-11T04:58:08.119Z,-1.44
2019-01-11T05:00:39.871Z,-1.45
2019-01-11T05:03:11.836Z,-1.47
2019-01-11T05:05:43.672Z,-1.37
2019-01-11T05:08:15.852Z,-1.41
2019-01-11T05:10:47.905Z,-1.38
2019-01-11T05:13:30.374Z,-1.48
2019-01-11T05:16:02.623Z,-1.39
2019-01-11T05:18:34.554Z,-1.40
2019-01-11T05:21:06.726Z,-1.36
2019-01-11T05:23:38.979Z,-1.39
2019-01-11T05:26:10.743Z,-1.41
2019-01-11T05:28:42.589Z,-1.36
2019-01-11T05:31:14.353Z,-1.37
2019-01-11T05:33:46.212Z,-1.35
2019-01-11T05:36:17.980Z,-1.39
2019-01-11T05:38:49.728Z,-1.39
2019-01-11T05:41:22.223Z,-1.39
2019-01-11T05:43:54.455Z,-1.44
2019-01-11T05:46:26.255Z,-1.38
2019-01-11T05:48:58.024Z,-1.35
2019-01-11T05:51:29.975Z,-1.34
2019-01-11T05:54:01.913Z,-1.31
2019-01-11T05:56:33.774Z,-1.33
2019-01-11T05:59:07.371Z,-1.35
2019-01-11T06:01:39.453Z,-1.43
2019-01-11T06:04:32.621Z,-1.39
2019-01-11T06:07:24.623Z,-1.40
2019-01-11T06:09:56.387Z,-1.42
2019-01-11T06:12:28.154Z,-1.48
2019-01-11T06:14:59.919Z,-1.42
2019-01-11T06:17:31.819Z,-1.47
2019-01-11T06:20:03.604Z,-1.47
2019-01-11T06:22:35.579Z,-1.40
2019-01-11T06:25:07.758Z,-1.48
2019-01-11T06:27:39.813Z,-1.38
2019-01-11T06:30:14.027Z,-1.49
2019-01-11T06:32:45.910Z,-1.36
2019-01-11T06:35:17.823Z,-1.40
2019-01-11T06:37:49.739Z,-1.28
2019-01-11T06:40:21.494Z,-1.38
2019-01-11T06:42:53.626Z,-1.40
2019-01-11T06:45:26.031Z,-1.43
2019-01-11T06:47:58.277Z,-1.44
2019-01-11T06:50:36.381Z,-1.47
2019-01-11T06:53:04.429Z,-1.45
2019-01-11T06:55:36.626Z,-1.48
2019-01-11T06:58:09.338Z,-1.45
2019-01-11T07:00:41.575Z,-1.45
2019-01-11T07:03:15.731Z,-1.47
2019-01-11T07:05:47.845Z,-1.45
2019-01-11T07:08:19.770Z,-1.56
2019-01-11T07:10:51.576Z,-1.48
2019-01-11T07:13:23.459Z,-1.46
2019-01-11T07:15:55.620Z,-1.46
2019-01-11T07:18:27.687Z,-1.38
2019-01-11T07:20:59.489Z,-1.61
2019-01-11T07:23:31.677Z,-1.62
2019-01-11T07:26:03.719Z,-1.52
2019-01-11T07:28:36.848Z,-1.68
2019-01-11T07:31:13.817Z,-1.56
2019-01-11T07:33:47.590Z,-1.54
2019-01-11T07:36:29.921Z,-1.55
2019-01-11T07:39:03.030Z,-1.79
2019-01-11T07:41:35.175Z,-1.70
2019-01-11T07:44:06.997Z,-1.74
2019-01-11T07:46:40.612Z,-1.70
2019-01-11T07:49:12.555Z,-1.44
2019-01-11T07:51:44.960Z,-1.59
2019-01-11T07:54:17.061Z,-1.67
2019-01-11T07:56:49.625Z,-1.53
2019-01-11T07:59:22.103Z,-1.61
2019-01-11T08:01:54.282Z,-1.63
2019-01-11T08:04:26.259Z,-1.62
2019-01-11T08:06:58.045Z,-1.51
2019-01-11T08:09:29.805Z,-1.42
2019-01-11T08:12:02.113Z,-1.53
2019-01-11T08:14:35.005Z,-1.48
2019-01-11T08:17:07.266Z,-1.50
2019-01-11T08:19:39.123Z,-1.37
2019-01-11T08:22:18.752Z,-1.20
2019-01-11T08:24:58.542Z,-1.56
2019-01-11T08:27:37.991Z,-1.39
2019-01-11T08:30:13.140Z,-1.23
2019-01-11T08:32:45.234Z,-1.18
2019-01-11T08:35:17.015Z,-1.29
2019-01-11T08:37:49.269Z,-1.37
2019-01-11T08:40:21.754Z,-1.38
2019-01-11T08:42:53.921Z,-1.33
2019-01-11T08:45:25.763Z,-1.50
2019-01-11T08:47:57.926Z,-1.25
2019-01-11T08:50:30.092Z,-1.12
2019-01-11T08:53:02.279Z,-1.14
2019-01-11T08:55:34.720Z,-1.12
2019-01-11T08:58:07.398Z,-1.12
2019-01-11T09:00:39.810Z,-1.30
2019-01-11T09:03:11.531Z,-1.05
2019-01-11T09:05:43.308Z,-1.50
2019-01-11T09:08:15.284Z,-1.27
2019-01-11T09:10:47.486Z,-1.24
2019-01-11T09:13:19.536Z,-1.34
2019-01-11T09:15:51.690Z,-1.27
2019-01-11T09:18:36.699Z,-1.45
2019-01-11T09:21:09.646Z,-1.41
2019-01-11T09:23:42.155Z,-1.32
2019-01-11T09:26:14.272Z,-1.20
2019-01-11T09:28:46.460Z,-1.26
2019-01-11T09:31:18.442Z,-1.19
2019-01-11T09:33:50.206Z,-1.05
2019-01-11T09:36:22.364Z,-1.14
2019-01-11T09:38:54.501Z,-0.87
2019-01-11T09:41:26.461Z,-1.14
2019-01-11T09:43:58.242Z,-1.24
2019-01-11T09:46:30.137Z,-1.18
2019-01-11T09:49:01.915Z,-1.12
2019-01-11T09:51:33.707Z,-1.08
2019-01-11T09:54:05.595Z,-0.94
2019-01-11T09:56:37.557Z,-1.06
2019-01-11T09:59:09.667Z,-1.11
2019-01-11T10:01:42.092Z,-0.84
2019-01-11T10:04:18.932Z,-0.88
2019-01-11T10:07:03.512Z,-0.92
2019-01-11T10:09:35.370Z,-0.73
2019-01-11T10:12:07.191Z,-1.08
2019-01-11T10:14:39.200Z,-0.81
2019-01-11T10:17:11.032Z,-0.86
2019-01-11T10:19:42.816Z,-1.14
2019-01-11T10:22:14.666Z,-0.89
2019-01-11T10:24:46.725Z,-0.75
2019-01-11T10:27:18.497Z,-0.85
2019-01-11T10:29:50.783Z,-0.56
2019-01-11T10:32:23.033Z,-0.70
2019-01-11T10:34:55.441Z,-0.51
2019-01-11T10:37:27.225Z,-0.79
2019-01-11T10:39:59.079Z,-0.64
2019-01-11T10:42:30.864Z,-0.71
2019-01-11T10:45:02.615Z,-0.66
2019-01-11T10:47:34.795Z,-0.70
2019-01-11T10:50:08.245Z,-0.50
2019-01-11T10:52:39.239Z,-0.32
2019-01-11T10:55:12.671Z,-0.66
2019-01-11T10:57:44.768Z,-0.66
2019-01-11T11:00:22.848Z,-0.62
2019-01-11T11:02:55.855Z,-0.64
2019-01-11T11:05:26.982Z,-0.44
2019-01-11T11:07:58.717Z,-0.52
2019-01-11T11:10:30.537Z,-0.34
2019-01-11T11:13:02.298Z,-0.40
2019-01-11T11:15:34.144Z,-0.22
2019-01-11T11:18:06.200Z,-0.21
2019-01-11T11:20:38.037Z,-0.46
2019-01-11T11:23:09.883Z,-0.35
2019-01-11T11:25:41.715Z,-0.51
2019-01-11T11:28:13.496Z,-0.56
2019-01-11T11:30:45.249Z,-0.05
2019-01-11T11:33:17.082Z,-0.06
2019-01-11T11:35:48.828Z,0.04
2019-01-11T11:38:20.988Z,-0.19
2019-01-11T11:40:53.237Z,-0.15
2019-01-11T11:43:25.156Z,-0.22
2019-01-11T11:45:56.904Z,-0.01
2019-01-11T11:48:28.695Z,-0.14
2019-01-11T11:51:00.434Z,0.00
2019-01-11T11:53:32.245Z,-0.01
2019-01-11T11:56:04.283Z,0.25
2019-01-11T11:58:36.108Z,0.06
2019-01-11T12:01:08.422Z,0.15
2019-01-11T12:03:40.695Z,-0.07
2019-01-11T12:06:12.412Z,-0.20
2019-01-11T12:08:44.255Z,0.13
2019-01-11T12:11:16.400Z,0.17
2019-01-11T12:13:48.164Z,-0.05
2019-01-11T12:16:19.901Z,0.31
2019-01-11T12:18:51.720Z,0.14
2019-01-11T12:21:23.521Z,0.24
2019-01-11T12:23:55.570Z,0.31
2019-01-11T12:26:27.407Z,0.01
2019-01-11T12:28:59.565Z,-0.22
2019-01-11T12:31:31.318Z,-0.14
2019-01-11T12:34:05.571Z,0.16
2019-01-11T12:36:37.632Z,-0.03
2019-01-11T12:39:10.524Z,-0.23
2019-01-11T12:41:42.704Z,-0.05
2019-01-11T12:44:14.857Z,0.25
2019-01-11T12:46:46.711Z,0.16
2019-01-11T12:49:21.339Z,0.20
2019-01-11T12:51:54.056Z,0.22
2019-01-11T12:54:26.232Z,0.34
2019-01-11T12:56:58.625Z,-0.22
2019-01-11T12:59:30.801Z,-0.06
2019-01-11T13:02:02.924Z,0.24
2019-01-11T13:04:34.685Z,0.21
2019-01-11T13:07:06.814Z,0.07
2019-01-11T13:09:38.635Z,0.20
2019-01-11T13:12:10.448Z,0.05
2019-01-11T13:14:42.240Z,-0.09
2019-01-11T13:17:14.272Z,-0.33
2019-01-11T13:19:46.149Z,0.28
2019-01-11T13:22:17.889Z,0.20
2019-01-11T13:24:49.747Z,0.38
2019-01-11T13:27:22.064Z,0.25
2019-01-11T13:29:53.841Z,0.34
2019-01-11T13:32:25.928Z,0.25
2019-01-11T13:34:57.788Z,0.37
2019-01-11T13:37:29.543Z,0.38
2019-01-11T13:40:01.605Z,-0.07
2019-01-11T13:42:33.338Z,0.28
2019-01-11T13:45:05.556Z,0.49
2019-01-11T13:47:37.832Z,0.27
2019-01-11T13:50:31.618Z,0.34
2019-01-11T13:53:03.550Z,0.21
2019-01-11T13:55:35.317Z,0.49
2019-01-11T13:58:07.082Z,0.38
2019-01-11T14:00:39.359Z,-0.14
2019-01-11T14:03:11.629Z,0.11
2019-01-11T14:05:43.729Z,0.21
2019-01-11T14:08:15.752Z,0.29
2019-01-11T14:10:48.023Z,0.13
2019-01-11T14:13:20.359Z,0.11
2019-01-11T14:15:52.157Z,-0.15
2019-01-11T14:18:23.896Z,0.15
2019-01-11T14:20:55.741Z,0.07
2019-01-11T14:23:27.583Z,0.28
2019-01-11T14:25:59.353Z,0.00
2019-01-11T14:28:31.092Z,-0.01
2019-01-11T14:31:02.855Z,0.13
2019-01-11T14:33:34.759Z,0.31
2019-01-11T14:36:06.517Z,0.45
2019-01-11T14:38:38.728Z,0.18
2019-01-11T14:41:11.256Z,0.36
2019-01-11T14:43:43.516Z,0.28
2019-01-11T14:46:15.288Z,0.46
2019-01-11T14:48:47.302Z,0.12
2019-01-11T14:51:19.069Z,-0.05
2019-01-11T14:53:50.814Z,0.25
2019-01-11T14:56:22.709Z,0.26
2019-01-11T14:58:54.459Z,-0.05
2019-01-11T15:01:26.232Z,0.29
2019-01-11T15:03:58.072Z,0.42
2019-01-11T15:06:29.905Z,0.24
2019-01-11T15:09:01.649Z,0.04
2019-01-11T15:11:33.711Z,0.14
2019-01-11T15:14:05.501Z,0.06
2019-01-11T15:16:37.647Z,-0.34
2019-01-11T15:19:13.974Z,-0.36
2019-01-11T15:21:42.913Z,-0.31
2019-01-11T15:24:14.869Z,-0.19
2019-01-11T15:26:46.732Z,0.18
2019-01-11T15:29:18.483Z,0.26
2019-01-11T15:31:50.248Z,0.06
2019-01-11T15:34:21.991Z,0.17
2019-01-11T15:36:53.766Z,0.18
2019-01-11T15:39:25.514Z,-0.14
2019-01-11T15:41:57.295Z,0.03
2019-01-11T15:44:29.125Z,-0.18
2019-01-11T15:47:00.891Z,0.06
2019-01-11T15:49:32.732Z,0.03
2019-01-11T15:52:04.836Z,-0.18
2019-01-11T15:54:36.675Z,-0.29
2019-01-11T15:57:08.440Z,-0.50
2019-01-11T16:00:00.269Z,-0.45
2019-01-11T16:02:33.464Z,-0.60
2019-01-11T16:05:05.643Z,-0.52
2019-01-11T16:07:37.413Z,-0.09
2019-01-11T16:10:18.264Z,-0.14
2019-01-11T16:13:16.509Z,-0.05
2019-01-11T16:16:44.285Z,-0.07
2019-01-11T16:19:16.157Z,-0.34
2019-01-11T16:21:47.993Z,-0.28
2019-01-11T16:24:19.861Z,-0.23
2019-01-11T16:26:51.639Z,-0.05
2019-01-11T16:29:23.398Z,0.08
2019-01-11T16:31:55.158Z,-0.07
2019-01-11T16:34:27.093Z,0.10
2019-01-11T16:36:59.284Z,0.01
2019-01-11T16:39:31.492Z,0.10
2019-01-11T16:42:03.387Z,0.01
2019-01-11T16:44:35.210Z,-0.13
2019-01-11T16:47:07.072Z,0.05
2019-01-11T16:49:38.880Z,-0.06
2019-01-11T16:52:15.303Z,-0.04
2019-01-11T16:54:44.286Z,0.01
2019-01-11T16:57:16.044Z,-0.03
2019-01-11T16:59:48.176Z,-0.03
2019-01-11T17:02:20.475Z,-0.09
2019-01-11T17:04:52.673Z,-0.22
2019-01-11T17:07:24.652Z,-0.02
2019-01-11T17:09:56.424Z,0.00
2019-01-11T17:12:28.194Z,0.02
2019-01-11T17:15:02.253Z,-0.03
2019-01-11T17:17:34.001Z,-0.22
2019-01-11T17:20:08.172Z,-0.08
2019-01-11T17:22:40.107Z,-0.01
2019-01-11T17:25:12.044Z,-0.07
2019-01-11T17:27:43.870Z,-0.11
2019-01-11T17:30:19.874Z,-0.51
2019-01-11T17:32:51.646Z,-0.16
2019-01-11T17:35:23.417Z,-0.19
2019-01-11T17:37:55.266Z,0.00
2019-01-11T17:40:27.145Z,-0.10
2019-01-11T17:42:59.346Z,-0.04
2019-01-11T17:45:32.120Z,-0.11
2019-01-11T17:48:04.194Z,-0.09
2019-01-11T17:50:36.047Z,-0.16
2019-01-11T17:53:07.875Z,-0.27
2019-01-11T17:55:40.551Z,-0.13
2019-01-11T17:58:12.714Z,-0.09
2019-01-11T18:00:45.001Z,-0.19
2019-01-11T18:03:17.602Z,-0.30
2019-01-11T18:05:49.760Z,-0.16
2019-01-11T18:08:22.927Z,-0.19
2019-01-11T18:10:54.731Z,-0.12
2019-01-11T18:13:27.158Z,-0.12
2019-01-11T18:16:00.104Z,-0.19
2019-01-11T18:18:32.510Z,-0.08
2019-01-11T18:21:04.310Z,-0.06
2019-01-11T18:23:38.110Z,-0.16
2019-01-11T18:26:09.908Z,-0.06
2019-01-11T18:28:41.759Z,-0.16
2019-01-11T18:31:13.637Z,-0.14
2019-01-11T18:33:46.100Z,-0.09
2019-01-11T18:36:18.560Z,-0.02
2019-01-11T18:38:50.464Z,0.00
2019-01-11T18:41:23.074Z,-0.18
2019-01-11T18:43:55.203Z,-0.13
2019-01-11T18:46:27.023Z,-0.19
2019-01-11T18:48:58.998Z,-0.13
2019-01-11T18:51:31.292Z,-0.19
2019-01-11T18:54:03.898Z,-0.06
2019-01-11T18:56:35.955Z,0.02
2019-01-11T18:59:08.328Z,0.06
2019-01-11T19:01:40.352Z,-0.03
2019-01-11T19:04:12.263Z,-0.23
2019-01-11T19:06:44.413Z,0.00
2019-01-11T19:09:16.249Z,0.05
2019-01-11T19:11:48.110Z,0.05
2019-01-11T19:14:19.829Z,0.03
2019-01-11T19:16:51.629Z,0.04
2019-01-11T19:19:23.397Z,0.00
2019-01-11T19:21:55.335Z,-0.09
2019-01-11T19:24:27.405Z,-0.02
2019-01-11T19:26:59.275Z,0.01
2019-01-11T19:29:31.211Z,0.04
2019-01-11T19:32:03.007Z,0.12
2019-01-11T19:34:34.826Z,0.13
2019-01-11T19:37:06.722Z,0.09
2019-01-11T19:39:38.983Z,0.13
2019-01-11T19:42:11.318Z,0.09
2019-01-11T19:44:44.134Z,0.16
2019-01-11T19:47:16.248Z,0.17
2019-01-11T19:49:48.188Z,0.12
2019-01-11T19:52:19.932Z,0.16
2019-01-11T19:54:51.720Z,0.18
2019-01-11T19:57:23.483Z,0.18
2019-01-11T19:59:55.402Z,0.19
2019-01-11T20:02:27.150Z,0.17
2019-01-11T20:04:58.937Z,0.17
2019-01-11T20:07:30.793Z,0.23
2019-01-11T20:10:02.648Z,0.22
2019-01-11T20:12:34.529Z,0.16
2019-01-11T20:15:07.319Z,0.18
2019-01-11T20:17:39.898Z,0.22
2019-01-11T20:20:13.479Z,0.27
2019-01-11T20:22:45.345Z,0.28
2019-01-11T20:25:19.856Z,0.25
2019-01-11T20:27:51.835Z,0.23
2019-01-11T20:30:28.651Z,0.27
2019-01-11T20:33:00.448Z,0.24
2019-01-11T20:35:32.558Z,0.25
2019-01-11T20:38:04.683Z,0.26
2019-01-11T20:40:36.542Z,0.31
2019-01-11T20:43:08.281Z,0.27
2019-01-11T20:45:40.194Z,0.29
2019-01-11T20:48:11.949Z,0.29
2019-01-11T20:50:44.048Z,0.29
2019-01-11T20:53:17.093Z,0.29
2019-01-11T20:55:47.860Z,0.27
2019-01-11T20:58:20.156Z,0.31
2019-01-11T21:00:52.351Z,0.29
2019-01-11T21:03:24.472Z,0.31
2019-01-11T21:05:56.646Z,0.32
2019-01-11T21:08:28.716Z,0.31
2019-01-11T21:11:00.816Z,0.38
2019-01-11T21:13:32.771Z,0.37
2019-01-11T21:16:05.196Z,0.37
2019-01-11T21:18:37.352Z,0.38
2019-01-11T21:21:09.116Z,0.39
2019-01-11T21:23:40.950Z,0.37
2019-01-11T21:26:12.997Z,0.37
2019-01-11T21:28:44.869Z,0.37
2019-01-11T21:31:16.729Z,0.41
2019-01-11T21:33:48.948Z,0.42
2019-01-11T21:36:21.023Z,0.42
2019-01-11T21:38:53.273Z,0.44
2019-01-11T21:41:25.316Z,0.44
2019-01-11T21:43:57.060Z,0.44
2019-01-11T21:46:29.161Z,0.47
2019-01-11T21:49:01.074Z,0.48
2019-01-11T21:51:33.334Z,0.48
2019-01-11T21:54:05.890Z,0.51
2019-01-11T21:56:37.972Z,0.53
2019-01-11T21:59:10.119Z,0.54
2019-01-11T22:01:42.231Z,0.55
2019-01-11T22:04:13.985Z,0.56
2019-01-11T22:06:46.135Z,0.56
2019-01-11T22:09:18.235Z,0.55
2019-01-11T22:11:50.568Z,0.65
2019-01-11T22:14:23.000Z,0.61
2019-01-11T22:16:55.246Z,0.64
2019-01-11T22:19:27.102Z,0.66
2019-01-11T22:21:59.605Z,0.61
2019-01-11T22:24:31.758Z,0.59
2019-01-11T22:27:03.543Z,0.60
2019-01-11T22:29:35.478Z,0.59
2019-01-11T22:32:07.246Z,0.61
2019-01-11T22:34:39.075Z,0.62
2019-01-11T22:37:11.000Z,0.62
2019-01-11T22:39:42.751Z,0.62
2019-01-11T22:42:14.876Z,0.62
2019-01-11T22:44:46.939Z,0.63
2019-01-11T22:47:18.819Z,0.64
2019-01-11T22:49:50.572Z,0.63
2019-01-11T22:52:22.484Z,0.63
2019-01-11T22:54:54.236Z,0.64
2019-01-11T22:57:25.990Z,0.62
2019-01-11T22:59:57.803Z,0.64
2019-01-11T23:02:46.243Z,0.63
2019-01-11T23:05:18.373Z,0.63
2019-01-11T23:08:04.191Z,0.63
2019-01-11T23:11:29.669Z,0.63
2019-01-11T23:14:01.421Z,0.63
2019-01-11T23:16:50.650Z,0.64
2019-01-11T23:19:22.538Z,0.64
2019-01-11T23:21:54.278Z,0.65
2019-01-11T23:24:26.413Z,0.68
2019-01-11T23:26:58.204Z,0.66
2019-01-11T23:29:30.362Z,0.67
2019-01-11T23:32:02.537Z,0.68
2019-01-11T23:34:34.492Z,0.69
2019-01-11T23:37:06.251Z,0.69
2019-01-11T23:39:38.407Z,0.68
2019-01-11T23:42:10.563Z,0.71
2019-01-11T23:44:42.368Z,0.71
2019-01-11T23:47:14.211Z,0.69
2019-01-11T23:49:45.971Z,0.72
2019-01-11T23:52:17.839Z,0.72
2019-01-11T23:54:50.087Z,0.73
2019-01-11T23:57:22.863Z,0.73
2019-01-11T23:59:55.357Z,0.75
